createdAt,value
2022-09-18T00:01:30.973Z,98536.47
2022-09-18T00:04:01.340Z,98536.63
2022-09-18T00:06:32.171Z,98535.19
2022-09-18T00:09:00.465Z,98536.31
2022-09-18T00:11:30.261Z,98536.16
2022-09-18T00:14:00.979Z,98542.28
2022-09-18T00:16:31.277Z,98540.22
2022-09-18T00:18:58.905Z,98539.94
2022-09-18T00:21:26.664Z,98540.22
2022-09-18T00:23:57.501Z,98536.94
2022-09-18T00:26:25.575Z,98539.13
2022-09-18T00:28:54.978Z,98536.31
2022-09-18T00:31:25.583Z,98537.09
2022-09-18T00:33:53.481Z,98535.81
2022-09-18T00:36:21.755Z,98531.72
2022-09-18T00:38:51.329Z,98535.06
2022-09-18T00:41:21.373Z,98534.72
2022-09-18T00:43:49.005Z,98533.16
2022-09-18T00:46:36.700Z,98531.59
2022-09-18T00:49:17.231Z,98527.78
2022-09-18T00:51:46.396Z,98526.22
2022-09-18T00:54:25.834Z,98524.19
2022-09-18T00:56:57.749Z,98531.09
2022-09-18T00:59:29.249Z,98531.56
2022-09-18T01:01:59.358Z,98541.81
2022-09-18T01:04:28.395Z,98538.69
2022-09-18T01:07:08.038Z,98541.66
2022-09-18T01:09:38.841Z,98545.00
2022-09-18T01:12:34.174Z,98541.38
2022-09-18T01:15:16.941Z,98545.31
2022-09-18T01:17:50.057Z,98550.34
2022-09-18T01:20:29.495Z,98541.84
2022-09-18T01:23:15.601Z,98554.13
2022-09-18T01:26:15.507Z,98546.38
2022-09-18T01:28:48.595Z,98552.37
2022-09-18T01:31:23.075Z,98547.03
2022-09-18T01:34:29.313Z,98550.81
2022-09-18T01:37:17.828Z,98546.25
2022-09-18T01:39:55.922Z,98548.28
2022-09-18T01:42:25.951Z,98553.19
2022-09-18T01:44:56.076Z,98559.97
2022-09-18T01:47:28.132Z,98558.53
2022-09-18T01:49:56.719Z,98565.63
2022-09-18T01:52:31.240Z,98568.94
2022-09-18T01:55:01.813Z,98566.72
2022-09-18T01:57:44.691Z,98575.25
2022-09-18T02:00:12.762Z,98570.84
2022-09-18T02:03:05.669Z,98581.25
2022-09-18T02:05:40.752Z,98584.22
2022-09-18T02:08:22.134Z,98586.59
2022-09-18T02:10:53.893Z,98592.38
2022-09-18T02:13:24.627Z,98596.97
2022-09-18T02:15:58.901Z,98599.66
2022-09-18T02:18:31.670Z,98607.53
2022-09-18T02:21:00.948Z,98601.84
2022-09-18T02:23:32.713Z,98597.91
2022-09-18T02:26:02.727Z,98608.63
2022-09-18T02:28:31.894Z,98612.09
2022-09-18T02:31:00.496Z,98612.50
2022-09-18T02:33:31.319Z,98621.63
2022-09-18T02:36:17.623Z,98626.69
2022-09-18T02:38:51.732Z,98622.09
2022-09-18T02:41:44.065Z,98623.75
2022-09-18T02:44:30.063Z,98626.84
2022-09-18T02:47:19.120Z,98626.00
2022-09-18T02:50:17.018Z,98638.63
2022-09-18T02:52:47.953Z,98636.84
2022-09-18T02:55:30.280Z,98643.91
2022-09-18T02:58:05.162Z,98639.47
2022-09-18T03:00:33.133Z,98646.56
2022-09-18T03:03:02.294Z,98643.25
2022-09-18T03:05:30.297Z,98650.06
2022-09-18T03:07:58.313Z,98647.56
2022-09-18T03:10:28.284Z,98657.00
2022-09-18T03:12:57.510Z,98657.31
2022-09-18T03:15:24.982Z,98661.88
2022-09-18T03:17:55.472Z,98657.28
2022-09-18T03:20:23.444Z,98668.47
2022-09-18T03:22:51.224Z,98670.97
2022-09-18T03:25:19.058Z,98667.41
2022-09-18T03:27:46.417Z,98671.75
2022-09-18T03:30:14.929Z,98669.38
2022-09-18T03:32:42.672Z,98671.28
2022-09-18T03:35:12.281Z,98670.84
2022-09-18T03:37:39.755Z,98669.44
2022-09-18T03:40:08.737Z,98671.94
2022-09-18T03:42:36.202Z,98673.44
2022-09-18T03:45:04.811Z,98678.69
2022-09-18T03:47:36.243Z,98686.41
2022-09-18T03:50:07.490Z,98686.59
2022-09-18T03:52:37.894Z,98687.09
2022-09-18T03:55:06.423Z,98695.81
2022-09-18T03:57:37.844Z,98693.25
2022-09-18T04:00:05.809Z,98698.37
2022-09-18T04:02:43.281Z,98695.91
2022-09-18T04:05:14.142Z,98702.06
2022-09-18T04:07:46.896Z,98702.88
2022-09-18T04:10:16.229Z,98707.50
2022-09-18T04:12:44.577Z,98706.94
2022-09-18T04:15:15.712Z,98711.69
2022-09-18T04:17:43.695Z,98719.13
2022-09-18T04:20:11.652Z,98723.16
2022-09-18T04:22:39.138Z,98724.56
2022-09-18T04:25:08.407Z,98722.28
2022-09-18T04:27:36.069Z,98719.28
2022-09-18T04:30:03.742Z,98723.38
2022-09-18T04:32:31.628Z,98734.31
2022-09-18T04:34:59.088Z,98733.09
2022-09-18T04:37:27.240Z,98734.31
2022-09-18T04:39:54.968Z,98740.81
2022-09-18T04:42:22.467Z,98747.06
2022-09-18T04:44:50.334Z,98738.75
2022-09-18T04:47:18.206Z,98735.66
2022-09-18T04:49:46.355Z,98745.59
2022-09-18T04:52:14.349Z,98756.38
2022-09-18T04:54:42.112Z,98761.41
2022-09-18T04:57:09.875Z,98763.19
2022-09-18T04:59:42.435Z,98751.22
2022-09-18T05:02:10.576Z,98769.13
2022-09-18T05:04:38.000Z,98753.38
2022-09-18T05:07:05.766Z,98755.56
2022-09-18T05:09:34.841Z,98761.41
2022-09-18T05:12:02.584Z,98760.53
2022-09-18T05:14:30.246Z,98759.63
2022-09-18T05:16:58.425Z,98756.16
2022-09-18T05:19:26.169Z,98764.75
2022-09-18T05:21:58.990Z,98761.81
2022-09-18T05:24:26.739Z,98768.09
2022-09-18T05:26:54.098Z,98775.03
2022-09-18T05:29:21.688Z,98774.91
2022-09-18T05:31:49.875Z,98780.94
2022-09-18T05:34:17.369Z,98790.53
2022-09-18T05:36:45.954Z,98785.75
2022-09-18T05:39:17.388Z,98789.94
2022-09-18T05:41:48.666Z,98789.09
2022-09-18T05:44:16.337Z,98793.78
2022-09-18T05:46:43.868Z,98801.22
2022-09-18T05:49:11.342Z,98797.66
2022-09-18T05:51:39.137Z,98795.53
2022-09-18T05:54:07.811Z,98797.31
2022-09-18T05:56:36.564Z,98801.44
2022-09-18T05:59:04.474Z,98803.06
2022-09-18T06:01:33.455Z,98804.78
2022-09-18T06:04:02.615Z,98803.38
2022-09-18T06:06:30.290Z,98797.81
2022-09-18T06:08:57.971Z,98803.75
2022-09-18T06:11:29.390Z,98799.31
2022-09-18T06:13:57.670Z,98809.44
2022-09-18T06:16:25.085Z,98815.81
2022-09-18T06:18:56.171Z,98808.56
2022-09-18T06:21:23.662Z,98802.09
2022-09-18T06:23:51.187Z,98809.06
2022-09-18T06:26:19.395Z,98809.25
2022-09-18T06:28:46.923Z,98808.81
2022-09-18T06:31:16.351Z,98822.38
2022-09-18T06:33:45.104Z,98813.88
2022-09-18T06:36:13.620Z,98845.47
2022-09-18T06:38:42.583Z,98839.84
2022-09-18T06:41:10.383Z,98848.69
2022-09-18T06:43:38.732Z,98846.19
2022-09-18T06:46:10.622Z,98851.25
2022-09-18T06:48:38.975Z,98842.59
2022-09-18T06:51:06.666Z,98852.25
2022-09-18T06:53:35.244Z,98852.09
2022-09-18T06:56:06.176Z,98847.81
2022-09-18T06:58:34.022Z,98856.34
2022-09-18T07:01:02.269Z,98842.59
2022-09-18T07:03:30.598Z,98865.03
2022-09-18T07:05:58.677Z,98845.62
2022-09-18T07:08:26.515Z,98864.87
2022-09-18T07:11:00.315Z,98872.00
2022-09-18T07:13:31.769Z,98857.59
2022-09-18T07:16:00.021Z,98858.22
2022-09-18T07:18:27.627Z,98847.44
2022-09-18T07:20:55.086Z,98854.09
2022-09-18T07:23:27.845Z,98860.53
2022-09-18T07:25:55.420Z,98865.63
2022-09-18T07:28:22.869Z,98858.63
2022-09-18T07:30:53.652Z,98852.66
2022-09-18T07:33:21.140Z,98863.19
2022-09-18T07:35:48.645Z,98853.72
2022-09-18T07:38:17.393Z,98858.13
2022-09-18T07:40:46.807Z,98851.78
2022-09-18T07:43:14.287Z,98868.19
2022-09-18T07:45:44.170Z,98868.00
2022-09-18T07:48:11.732Z,98880.34
2022-09-18T07:50:39.825Z,98882.66
2022-09-18T07:53:08.199Z,98881.44
2022-09-18T07:55:36.449Z,98888.00
2022-09-18T07:58:06.264Z,98876.03
2022-09-18T08:00:37.239Z,98882.50
2022-09-18T08:03:12.630Z,98881.13
2022-09-18T08:05:41.346Z,98877.84
2022-09-18T08:08:13.702Z,98896.44
2022-09-18T08:10:44.741Z,98881.75
2022-09-18T08:13:16.295Z,98887.59
2022-09-18T08:15:43.955Z,98884.34
2022-09-18T08:18:11.746Z,98892.69
2022-09-18T08:20:39.723Z,98900.88
2022-09-18T08:23:07.992Z,98903.06
2022-09-18T08:25:40.060Z,98902.19
2022-09-18T08:28:07.902Z,98908.66
2022-09-18T08:30:36.173Z,98902.84
2022-09-18T08:33:06.723Z,98903.66
2022-09-18T08:35:34.569Z,98905.88
2022-09-18T08:38:06.324Z,98905.22
2022-09-18T08:40:43.366Z,98907.78
2022-09-18T08:43:16.184Z,98911.81
2022-09-18T09:05:57.846Z,98897.97
2022-09-18T09:08:54.102Z,98897.97
2022-09-18T09:11:27.226Z,98909.78
2022-09-18T09:14:13.644Z,98913.28
2022-09-18T09:16:45.764Z,98917.53
2022-09-18T09:19:42.491Z,98916.72
2022-09-18T09:22:59.643Z,98925.66
2022-09-18T09:25:44.317Z,98928.91
2022-09-18T09:28:16.488Z,98923.25
2022-09-18T09:30:57.216Z,98931.00
2022-09-18T09:33:33.793Z,98934.69
2022-09-18T09:36:23.545Z,98938.66
2022-09-18T09:39:16.046Z,98937.84
2022-09-18T09:41:58.199Z,98934.97
2022-09-18T09:44:40.640Z,98943.59
2022-09-18T09:47:29.887Z,98939.44
2022-09-18T09:50:14.493Z,98944.00
2022-09-18T09:52:46.478Z,98946.72
2022-09-18T09:55:13.804Z,98941.25
2022-09-18T09:58:11.817Z,98949.25
2022-09-18T10:00:48.635Z,98950.66
2022-09-18T10:04:01.026Z,98939.66
2022-09-18T10:06:36.562Z,98951.19
2022-09-18T10:09:43.328Z,98948.84
2022-09-18T10:12:39.687Z,98954.91
2022-09-18T10:15:16.785Z,98949.16
2022-09-18T10:17:48.714Z,98946.50
2022-09-18T10:20:27.286Z,98952.94
2022-09-18T10:22:55.949Z,98965.94
2022-09-18T10:25:30.139Z,98965.13
2022-09-18T10:27:58.943Z,98968.94
2022-09-18T10:30:26.654Z,98968.75
2022-09-18T10:32:53.998Z,98972.22
2022-09-18T10:35:30.494Z,98981.41
2022-09-18T10:37:58.652Z,98978.88
2022-09-18T10:40:33.403Z,98977.66
2022-09-18T10:43:02.949Z,98975.06
2022-09-18T10:45:39.781Z,98968.44
2022-09-18T10:48:17.354Z,98985.06
2022-09-18T10:50:55.642Z,98979.94
2022-09-18T10:53:31.537Z,98980.47
2022-09-18T10:56:06.294Z,98988.97
2022-09-18T10:58:35.615Z,98988.75
2022-09-18T11:01:05.946Z,98996.41
2022-09-18T11:03:37.058Z,98993.53
2022-09-18T11:06:10.244Z,98999.25
2022-09-18T11:08:43.906Z,98989.09
2022-09-18T11:11:26.616Z,98995.16
2022-09-18T11:14:01.402Z,98988.34
2022-09-18T11:16:37.860Z,98997.03
2022-09-18T11:19:35.093Z,98994.97
2022-09-18T11:22:33.248Z,98996.97
2022-09-18T11:25:15.948Z,98996.88
2022-09-18T11:27:52.156Z,98996.78
2022-09-18T11:30:31.047Z,99021.12
2022-09-18T11:33:10.149Z,99007.09
2022-09-18T11:35:44.852Z,99001.28
2022-09-18T11:38:16.110Z,98999.28
2022-09-18T11:40:45.594Z,99002.59
2022-09-18T11:43:22.151Z,98996.75
2022-09-18T11:46:11.373Z,99007.22
2022-09-18T11:48:45.345Z,98996.03
2022-09-18T11:51:25.542Z,98995.81
2022-09-18T11:54:06.182Z,98998.50
2022-09-18T11:56:45.334Z,98985.19
2022-09-18T11:59:35.333Z,99002.59
2022-09-18T12:02:21.744Z,98978.94
2022-09-18T12:05:12.837Z,98983.66
2022-09-18T12:07:50.875Z,98977.34
2022-09-18T12:10:26.668Z,98979.59
2022-09-18T12:13:23.634Z,98986.34
2022-09-18T12:16:07.476Z,98981.31
2022-09-18T12:18:45.248Z,98978.16
2022-09-18T12:21:17.107Z,98983.12
2022-09-18T12:23:45.288Z,98979.84
2022-09-18T12:26:31.855Z,98985.47
2022-09-18T12:29:14.524Z,98978.13
2022-09-18T12:31:48.837Z,98983.66
2022-09-18T12:34:26.861Z,98979.19
2022-09-18T12:37:17.945Z,98982.50
2022-09-18T12:40:17.165Z,98978.41
2022-09-18T12:43:03.463Z,98978.38
2022-09-18T12:45:44.199Z,98978.72
2022-09-18T12:48:47.260Z,98974.91
2022-09-18T12:51:26.793Z,98982.34
2022-09-18T12:54:18.353Z,98976.34
2022-09-18T12:56:57.212Z,98972.47
2022-09-18T12:59:35.753Z,98973.47
2022-09-18T13:02:18.393Z,98985.28
2022-09-18T13:04:51.161Z,98979.75
2022-09-18T13:07:23.857Z,98983.03
2022-09-18T13:09:58.173Z,98977.91
2022-09-18T13:12:36.871Z,98985.00
2022-09-18T13:15:28.309Z,98984.84
2022-09-18T13:18:14.410Z,98976.44
2022-09-18T13:20:44.858Z,98969.16
2022-09-18T13:23:23.219Z,98969.53
2022-09-18T13:25:52.665Z,98954.09
2022-09-18T13:28:22.453Z,98963.94
2022-09-18T13:31:12.432Z,98965.47
2022-09-18T13:33:49.613Z,98962.50
2022-09-18T13:36:44.536Z,98961.97
2022-09-18T13:39:19.048Z,98965.97
2022-09-18T13:41:50.282Z,98967.91
2022-09-18T13:44:34.568Z,98967.13
2022-09-18T13:47:14.291Z,98967.94
2022-09-18T13:49:48.431Z,98968.69
2022-09-18T13:52:34.034Z,98968.16
2022-09-18T13:55:13.416Z,98970.16
2022-09-18T13:57:42.193Z,98976.12
2022-09-18T14:00:33.707Z,98983.16
2022-09-18T14:03:07.276Z,98986.13
2022-09-18T14:05:34.323Z,98989.31
2022-09-18T14:08:03.890Z,99007.22
2022-09-18T14:10:34.741Z,99001.94
2022-09-18T14:13:15.536Z,99010.13
2022-09-18T14:16:03.669Z,99014.97
2022-09-18T14:18:46.401Z,99015.31
2022-09-18T14:21:19.382Z,99031.75
2022-09-18T14:23:46.858Z,99036.12
2022-09-18T14:26:29.014Z,99044.25
2022-09-18T14:29:08.716Z,99047.00
2022-09-18T14:31:44.927Z,99062.66
2022-09-18T14:34:36.095Z,99062.44
2022-09-18T14:37:18.677Z,99054.22
2022-09-18T14:39:46.479Z,99058.41
2022-09-18T14:42:36.243Z,99049.44
2022-09-18T14:45:06.500Z,99051.22
2022-09-18T14:47:33.756Z,99044.84
2022-09-18T14:50:02.419Z,99044.16
2022-09-18T14:52:42.819Z,99045.63
2022-09-18T14:55:17.329Z,99045.53
2022-09-18T14:57:55.019Z,99045.19
2022-09-18T15:00:26.235Z,99043.34
2022-09-18T15:02:55.779Z,99043.00
2022-09-18T15:05:23.449Z,99047.87
2022-09-18T15:08:06.256Z,99043.81
2022-09-18T15:10:38.959Z,99052.94
2022-09-18T15:13:08.491Z,99056.22
2022-09-18T15:15:38.320Z,99064.69
2022-09-18T15:18:17.370Z,99057.69
2022-09-18T15:20:50.269Z,99056.19
2022-09-18T15:23:28.939Z,99057.06
2022-09-18T15:25:59.766Z,99058.34
2022-09-18T15:28:32.120Z,99055.72
2022-09-18T15:31:02.924Z,99059.00
2022-09-18T15:33:31.967Z,99054.84
2022-09-18T15:36:02.830Z,99052.94
2022-09-18T15:38:42.259Z,99059.88
2022-09-18T15:41:42.112Z,99047.09
2022-09-18T15:44:50.990Z,99049.06
2022-09-18T15:47:27.543Z,99054.66
2022-09-18T15:49:55.695Z,99059.47
2022-09-18T15:52:46.052Z,99064.13
2022-09-18T15:55:18.396Z,99061.88
2022-09-18T15:57:56.352Z,99063.37
2022-09-18T16:00:28.375Z,99056.75
2022-09-18T16:03:02.873Z,99059.47
2022-09-18T16:05:33.873Z,99061.34
2022-09-18T16:08:05.232Z,99055.34
2022-09-18T16:10:35.603Z,99049.50
2022-09-18T16:13:05.095Z,99051.69
2022-09-18T16:15:33.155Z,99062.78
2022-09-18T16:18:15.921Z,99065.16
2022-09-18T16:21:00.481Z,99066.41
2022-09-18T16:23:53.449Z,99064.53
2022-09-18T16:26:34.385Z,99081.41
2022-09-18T16:29:13.332Z,99082.94
2022-09-18T16:31:41.137Z,99087.56
2022-09-18T16:34:31.615Z,99093.13
2022-09-18T16:37:00.166Z,99093.91
2022-09-18T16:39:28.729Z,99103.91
2022-09-18T16:41:56.259Z,99101.06
2022-09-18T16:44:24.814Z,99108.34
2022-09-18T16:47:05.250Z,99111.84
2022-09-18T16:49:37.673Z,99112.31
2022-09-18T16:52:05.710Z,99103.47
2022-09-18T16:54:32.943Z,99106.00
2022-09-18T16:57:05.508Z,99108.53
2022-09-18T16:59:33.180Z,99099.94
2022-09-18T17:02:04.172Z,99097.44
2022-09-18T17:04:33.444Z,99100.56
2022-09-18T17:07:01.659Z,99107.38
2022-09-18T17:09:30.656Z,99107.38
2022-09-18T17:12:00.011Z,99103.41
2022-09-18T17:14:27.617Z,99107.47
2022-09-18T17:16:55.066Z,99106.63
2022-09-18T17:19:22.339Z,99109.22
2022-09-18T17:21:49.909Z,99110.16
2022-09-18T17:24:17.352Z,99105.69
2022-09-18T17:26:45.901Z,99098.56
2022-09-18T17:29:13.532Z,99099.84
2022-09-18T17:31:41.199Z,99108.53
2022-09-18T17:34:08.834Z,99112.50
2022-09-18T17:36:42.568Z,99121.03
2022-09-18T17:39:10.305Z,99121.97
2022-09-18T17:41:39.562Z,99121.34
2022-09-18T17:44:09.350Z,99124.31
2022-09-18T17:46:48.434Z,99127.97
2022-09-18T17:49:19.505Z,99136.22
2022-09-18T17:51:47.565Z,99128.50
2022-09-18T17:54:16.554Z,99125.19
2022-09-18T17:56:44.209Z,99135.59
2022-09-18T17:59:11.502Z,99131.69
2022-09-18T18:01:41.314Z,99129.28
2022-09-18T18:04:12.569Z,99138.31
2022-09-18T18:06:39.999Z,99135.25
2022-09-18T18:09:08.080Z,99141.41
2022-09-18T18:11:36.028Z,99144.50
2022-09-18T18:14:03.313Z,99145.31
2022-09-18T18:16:30.822Z,99147.34
2022-09-18T18:19:02.141Z,99148.09
2022-09-18T18:21:30.937Z,99148.59
2022-09-18T18:24:04.364Z,99141.38
2022-09-18T18:26:31.853Z,99141.22
2022-09-18T18:29:01.507Z,99144.22
2022-09-18T18:31:29.431Z,99151.66
2022-09-18T18:33:56.851Z,99151.09
2022-09-18T18:36:31.115Z,99151.03
2022-09-18T18:39:00.207Z,99153.16
2022-09-18T18:41:29.657Z,99151.22
2022-09-18T18:43:59.189Z,99144.97
2022-09-18T18:46:28.500Z,99142.19
2022-09-18T18:49:00.217Z,99143.53
2022-09-18T18:51:29.040Z,99145.00
2022-09-18T18:53:56.968Z,99139.47
2022-09-18T18:56:24.425Z,99147.84
2022-09-18T18:58:56.047Z,99147.84
2022-09-18T19:01:24.611Z,99151.19
2022-09-18T19:04:00.105Z,99145.19
2022-09-18T19:06:28.249Z,99157.75
2022-09-18T19:09:07.849Z,99153.69
2022-09-18T19:11:37.072Z,99159.47
2022-09-18T19:14:04.288Z,99160.47
2022-09-18T19:16:31.753Z,99155.13
2022-09-18T19:18:59.862Z,99163.16
2022-09-18T19:21:28.608Z,99163.97
2022-09-18T19:23:59.635Z,99172.63
2022-09-18T19:26:28.450Z,99169.16
2022-09-18T19:28:59.770Z,99169.38
2022-09-18T19:31:29.064Z,99163.59
2022-09-18T19:33:56.684Z,99156.75
2022-09-18T19:36:26.570Z,99163.00
2022-09-18T19:38:56.665Z,99156.16
2022-09-18T19:42:08.500Z,99149.63
2022-09-18T19:44:56.940Z,99162.03
2022-09-18T19:47:27.309Z,99169.09
2022-09-18T19:49:57.062Z,99163.78
2022-09-18T19:52:26.226Z,99162.16
2022-09-18T19:54:54.756Z,99155.03
2022-09-18T19:57:23.109Z,99161.59
2022-09-18T19:59:50.688Z,99165.69
2022-09-18T20:02:21.850Z,99170.37
2022-09-18T20:04:49.626Z,99169.87
2022-09-18T20:07:16.824Z,99167.88
2022-09-18T20:09:44.057Z,99164.69
2022-09-18T20:12:11.631Z,99170.37
2022-09-18T20:14:38.853Z,99171.84
2022-09-18T20:17:06.129Z,99163.50
2022-09-18T20:19:33.954Z,99171.53
2022-09-18T20:22:01.229Z,99158.25
2022-09-18T20:24:29.835Z,99155.44
2022-09-18T20:26:58.131Z,99151.16
2022-09-18T20:29:25.397Z,99149.34
2022-09-18T20:31:52.766Z,99149.88
2022-09-18T20:34:20.376Z,99153.84
2022-09-18T20:36:51.497Z,99148.47
2022-09-18T20:39:19.232Z,99147.06
2022-09-18T20:41:46.779Z,99142.38
2022-09-18T20:44:14.294Z,99136.16
2022-09-18T20:46:41.719Z,99136.16
2022-09-18T20:49:10.975Z,99137.75
2022-09-18T20:51:38.688Z,99133.28
2022-09-18T20:54:06.640Z,99136.91
2022-09-18T20:56:36.479Z,99134.56
2022-09-18T20:59:03.921Z,99139.25
2022-09-18T21:01:32.417Z,99139.00
2022-09-18T21:04:01.198Z,99136.50
2022-09-18T21:06:30.849Z,99134.09
2022-09-18T21:08:58.697Z,99144.19
2022-09-18T21:11:31.073Z,99138.34
2022-09-18T21:14:00.586Z,99128.28
2022-09-18T21:16:31.097Z,99130.31
2022-09-18T21:18:59.268Z,99121.00
2022-09-18T21:21:28.369Z,99122.91
2022-09-18T21:23:56.856Z,99120.69
2022-09-18T21:26:32.776Z,99117.91
2022-09-18T21:29:04.370Z,99112.34
2022-09-18T21:31:34.450Z,99113.31
2022-09-18T21:34:02.821Z,99109.84
2022-09-18T21:36:30.685Z,99102.25
2022-09-18T21:38:58.351Z,99111.25
2022-09-18T21:41:26.265Z,99110.72
2022-09-18T21:43:54.120Z,99112.34
2022-09-18T21:46:22.591Z,99109.37
2022-09-18T21:48:50.591Z,99116.81
2022-09-18T21:51:18.226Z,99112.41
2022-09-18T21:53:45.872Z,99108.44
2022-09-18T21:56:17.453Z,99112.66
2022-09-18T21:58:46.067Z,99109.22
2022-09-18T22:01:19.534Z,99108.56
2022-09-18T22:03:52.339Z,99103.50
2022-09-18T22:06:24.321Z,99101.91
2022-09-18T22:08:53.945Z,99103.56
2022-09-18T22:11:23.589Z,99101.50
2022-09-18T22:13:51.046Z,99096.28
2022-09-18T22:16:19.959Z,99093.50
2022-09-18T22:18:47.283Z,99098.88
2022-09-18T22:21:21.014Z,99094.28
2022-09-18T22:23:54.278Z,99094.94
2022-09-18T22:26:23.874Z,99092.41
2022-09-18T22:28:56.522Z,99089.72
2022-09-18T22:31:24.895Z,99089.88
2022-09-18T22:33:55.561Z,99078.66
2022-09-18T22:36:23.994Z,99074.53
2022-09-18T22:38:52.409Z,99076.00
2022-09-18T22:41:20.782Z,99072.84
2022-09-18T22:43:52.439Z,99067.94
2022-09-18T22:46:20.117Z,99070.78
2022-09-18T22:48:48.150Z,99076.19
2022-09-18T22:51:23.952Z,99072.56
2022-09-18T22:53:53.747Z,99070.31
2022-09-18T22:56:21.873Z,99080.78
2022-09-18T22:58:50.097Z,99074.25
2022-09-18T23:01:22.429Z,99076.50
2022-09-18T23:03:51.409Z,99067.97
2022-09-18T23:06:23.620Z,99069.38
2022-09-18T23:08:53.928Z,99073.66
2022-09-18T23:11:26.625Z,99080.63
2022-09-18T23:14:01.061Z,99072.72
2022-09-18T23:16:33.660Z,99070.19
2022-09-18T23:19:03.946Z,99064.97
2022-09-18T23:21:33.219Z,99067.31
2022-09-18T23:24:07.092Z,99059.25
2022-09-18T23:26:41.290Z,99061.00
2022-09-18T23:29:11.503Z,99071.63
2022-09-18T23:31:42.004Z,99074.13
2022-09-18T23:34:16.052Z,99075.75
2022-09-18T23:36:48.452Z,99070.34
2022-09-18T23:39:20.038Z,99063.09
2022-09-18T23:41:47.750Z,99062.31
2022-09-18T23:44:16.768Z,99058.34
2022-09-18T23:46:44.841Z,99062.63
2022-09-18T23:49:13.874Z,99071.16
2022-09-18T23:51:43.785Z,99065.28
2022-09-18T23:54:22.200Z,99068.00
2022-09-18T23:56:49.843Z,99068.31
2022-09-18T23:59:23.024Z,99065.94
